createdAt,value
2023-04-08T00:01:55.873Z,84.30
2023-04-08T00:04:22.411Z,84.30
2023-04-08T00:06:48.938Z,84.40
2023-04-08T00:09:15.353Z,84.40
2023-04-08T00:11:41.743Z,84.50
2023-04-08T00:14:08.182Z,84.70
2023-04-08T00:16:35.186Z,84.70
2023-04-08T00:19:01.669Z,84.70
2023-04-08T00:21:28.111Z,85.30
2023-04-08T00:23:54.506Z,84.60
2023-04-08T00:26:21.005Z,84.60
2023-04-08T00:28:47.815Z,84.60
2023-04-08T00:31:14.588Z,84.60
2023-04-08T00:33:41.004Z,84.60
2023-04-08T00:36:07.418Z,84.40
2023-04-08T00:38:33.846Z,84.40
2023-04-08T00:41:00.288Z,84.40
2023-04-08T00:43:26.674Z,84.40
2023-04-08T00:45:53.152Z,84.30
2023-04-08T00:48:19.576Z,84.30
2023-04-08T00:50:46.037Z,84.30
2023-04-08T00:53:12.479Z,84.30
2023-04-08T00:55:38.873Z,84.30
2023-04-08T00:58:05.257Z,84.30
2023-04-08T01:00:31.735Z,84.30
2023-04-08T01:02:58.272Z,84.20
2023-04-08T01:05:24.742Z,84.10
2023-04-08T01:07:51.190Z,84.00
2023-04-08T01:10:17.640Z,84.00
2023-04-08T01:12:44.099Z,83.90
2023-04-08T01:15:10.539Z,83.90
2023-04-08T01:17:36.959Z,83.80
2023-04-08T01:20:03.375Z,83.90
2023-04-08T01:22:29.787Z,83.90
2023-04-08T01:24:56.187Z,83.80
2023-04-08T01:27:22.608Z,83.80
2023-04-08T01:29:49.001Z,83.70
2023-04-08T01:32:15.377Z,83.60
2023-04-08T01:34:41.830Z,83.60
2023-04-08T01:37:08.230Z,83.50
2023-04-08T01:39:34.678Z,83.50
2023-04-08T01:42:01.130Z,83.40
2023-04-08T01:44:27.605Z,83.40
2023-04-08T01:46:54.041Z,83.30
2023-04-08T01:49:20.468Z,83.30
2023-04-08T01:51:46.864Z,83.20
2023-04-08T01:54:13.233Z,83.20
2023-04-08T01:56:39.692Z,83.00
2023-04-08T01:59:06.098Z,83.00
2023-04-08T02:01:32.735Z,83.10
2023-04-08T02:03:59.408Z,83.00
2023-04-08T02:06:25.868Z,83.00
2023-04-08T02:08:52.541Z,82.90
2023-04-08T02:11:19.144Z,83.00
2023-04-08T02:13:45.510Z,82.90
2023-04-08T02:16:11.992Z,82.90
2023-04-08T02:18:38.410Z,82.90
2023-04-08T02:21:04.792Z,83.50
2023-04-08T02:23:31.171Z,82.90
2023-04-08T02:25:57.613Z,82.90
2023-04-08T02:28:23.985Z,83.00
2023-04-08T02:30:50.455Z,83.00
2023-04-08T02:33:16.850Z,83.10
2023-04-08T02:35:43.292Z,82.90
2023-04-08T02:38:09.751Z,83.00
2023-04-08T02:40:36.212Z,82.90
2023-04-08T02:43:02.621Z,82.70
2023-04-08T02:45:29.036Z,82.90
2023-04-08T02:47:55.548Z,82.80
2023-04-08T02:50:22.018Z,82.60
2023-04-08T02:52:48.417Z,82.60
2023-04-08T02:55:14.769Z,82.70
2023-04-08T02:57:41.133Z,82.60
2023-04-08T03:00:07.514Z,82.60
2023-04-08T03:02:34.039Z,82.50
2023-04-08T03:05:00.561Z,82.50
2023-04-08T03:07:26.977Z,82.50
2023-04-08T03:09:53.373Z,82.40
2023-04-08T03:12:19.771Z,82.30
2023-04-08T03:14:46.153Z,82.30
2023-04-08T03:17:12.577Z,82.20
2023-04-08T03:19:39.029Z,82.30
2023-04-08T03:22:05.486Z,82.30
2023-04-08T03:24:31.935Z,82.30
2023-04-08T03:26:58.366Z,82.30
2023-04-08T03:29:24.795Z,82.40
2023-04-08T03:31:51.624Z,82.60
2023-04-08T03:34:18.071Z,82.60
2023-04-08T03:36:44.460Z,82.70
2023-04-08T03:39:10.896Z,82.60
2023-04-08T03:41:37.355Z,82.80
2023-04-08T03:44:03.743Z,82.90
2023-04-08T03:46:30.256Z,83.00
2023-04-08T03:48:56.758Z,83.00
2023-04-08T03:51:23.150Z,83.00
2023-04-08T03:53:49.535Z,82.90
2023-04-08T03:56:15.908Z,82.80
2023-04-08T03:58:42.329Z,82.70
2023-04-08T04:01:08.734Z,82.70
2023-04-08T04:03:35.248Z,82.70
2023-04-08T04:06:01.739Z,82.80
2023-04-08T04:08:28.123Z,82.90
2023-04-08T04:10:54.549Z,82.90
2023-04-08T04:13:20.994Z,82.80
2023-04-08T04:15:47.493Z,82.60
2023-04-08T04:18:13.978Z,82.60
2023-04-08T04:20:40.386Z,82.60
2023-04-08T04:23:06.812Z,82.60
2023-04-08T04:25:33.277Z,82.50
2023-04-08T04:27:59.674Z,82.60
2023-04-08T04:30:26.076Z,82.60
2023-04-08T04:32:52.562Z,82.50
2023-04-08T04:35:19.071Z,82.70
2023-04-08T04:37:45.456Z,82.70
2023-04-08T04:40:11.887Z,82.60
2023-04-08T04:42:38.301Z,82.50
2023-04-08T04:45:04.692Z,82.50
2023-04-08T04:47:31.164Z,82.60
2023-04-08T04:49:57.592Z,82.60
2023-04-08T04:52:23.991Z,82.80
2023-04-08T04:54:50.375Z,82.80
2023-04-08T04:57:16.810Z,82.80
2023-04-08T04:59:43.253Z,82.90
2023-04-08T05:02:09.768Z,82.80
2023-04-08T05:04:36.252Z,82.90
2023-04-08T05:07:02.706Z,83.00
2023-04-08T05:09:29.154Z,83.10
2023-04-08T05:11:55.569Z,83.00
2023-04-08T05:14:21.953Z,82.90
2023-04-08T05:16:48.386Z,82.90
2023-04-08T05:19:14.843Z,82.90
2023-04-08T05:21:41.281Z,82.90
2023-04-08T05:24:07.724Z,83.00
2023-04-08T05:26:34.145Z,83.00
2023-04-08T05:29:00.543Z,82.90
2023-04-08T05:31:27.040Z,82.90
2023-04-08T05:33:53.444Z,82.90
2023-04-08T05:36:19.887Z,82.90
2023-04-08T05:38:46.318Z,82.80
2023-04-08T05:41:12.734Z,82.70
2023-04-08T05:43:39.108Z,82.60
2023-04-08T05:46:05.548Z,82.60
2023-04-08T05:48:32.016Z,82.40
2023-04-08T05:50:58.430Z,82.50
2023-04-08T05:53:24.827Z,82.40
2023-04-08T05:55:51.262Z,82.30
2023-04-08T05:58:17.701Z,82.30
2023-04-08T06:00:44.151Z,82.40
2023-04-08T06:03:10.838Z,82.40
2023-04-08T06:05:37.410Z,82.50
2023-04-08T06:08:03.792Z,82.50
2023-04-08T06:10:30.249Z,82.50
2023-04-08T06:12:56.780Z,82.70
2023-04-08T06:15:23.212Z,82.70
2023-04-08T06:17:49.605Z,82.70
2023-04-08T06:20:16.081Z,82.60
2023-04-08T06:22:42.483Z,82.60
2023-04-08T06:25:08.932Z,82.80
2023-04-08T06:27:35.555Z,83.00
2023-04-08T06:30:02.084Z,83.20
2023-04-08T06:32:28.549Z,83.20
2023-04-08T06:34:55.013Z,83.10
2023-04-08T06:37:21.487Z,82.90
2023-04-08T06:39:48.019Z,82.60
2023-04-08T06:42:14.466Z,82.40
2023-04-08T06:44:40.926Z,82.20
2023-04-08T06:47:07.316Z,82.10
2023-04-08T06:49:33.743Z,82.10
2023-04-08T06:52:00.201Z,82.20
2023-04-08T06:54:26.652Z,82.20
2023-04-08T06:56:53.048Z,82.30
2023-04-08T06:59:19.486Z,82.30
2023-04-08T07:01:46.000Z,82.00
2023-04-08T07:04:12.647Z,81.90
2023-04-08T07:06:39.117Z,81.80
2023-04-08T07:09:05.487Z,81.80
2023-04-08T07:11:31.981Z,82.00
2023-04-08T07:13:58.449Z,82.10
2023-04-08T07:16:25.006Z,82.10
2023-04-08T07:18:51.613Z,82.20
2023-04-08T07:21:18.258Z,82.20
2023-04-08T07:23:44.708Z,82.20
2023-04-08T07:26:11.168Z,82.90
2023-04-08T07:28:37.585Z,82.20
2023-04-08T07:31:04.013Z,82.20
2023-04-08T07:33:30.526Z,82.70
2023-04-08T07:35:57.029Z,82.00
2023-04-08T07:38:23.468Z,82.00
2023-04-08T07:40:49.860Z,82.00
2023-04-08T07:43:16.238Z,82.00
2023-04-08T07:45:42.732Z,82.10
2023-04-08T07:48:09.210Z,82.10
2023-04-08T07:50:35.691Z,82.10
2023-04-08T07:53:23.859Z,82.20
2023-04-08T07:55:50.403Z,82.10
2023-04-08T07:58:16.956Z,81.90
2023-04-08T08:00:43.507Z,81.70
2023-04-08T08:03:10.011Z,81.80
2023-04-08T08:05:36.513Z,81.70
2023-04-08T08:08:02.978Z,81.60
2023-04-08T08:10:29.439Z,81.60
2023-04-08T08:12:55.859Z,81.60
2023-04-08T08:15:22.266Z,81.60
2023-04-08T08:17:48.734Z,81.50
2023-04-08T08:20:15.140Z,81.50
2023-04-08T08:22:50.922Z,81.40
2023-04-08T08:25:25.472Z,81.40
2023-04-08T08:27:52.594Z,81.30
2023-04-08T08:30:18.978Z,81.10
2023-04-08T08:32:45.399Z,81.00
2023-04-08T08:35:11.890Z,80.80
2023-04-08T08:37:38.327Z,80.70
2023-04-08T08:40:04.755Z,80.60
2023-04-08T08:42:32.268Z,80.40
2023-04-08T08:45:00.315Z,80.30
2023-04-08T08:47:26.818Z,80.10
2023-04-08T08:49:53.346Z,79.70
2023-04-08T08:52:19.780Z,79.00
2023-04-08T08:54:46.177Z,78.30
2023-04-08T08:57:12.600Z,77.90
2023-04-08T08:59:39.055Z,77.30
2023-04-08T09:02:05.536Z,76.80
2023-04-08T09:04:32.226Z,76.20
2023-04-08T09:06:58.677Z,75.90
2023-04-08T09:09:25.041Z,75.70
2023-04-08T09:11:51.436Z,75.50
2023-04-08T09:14:17.812Z,75.60
2023-04-08T09:16:44.438Z,75.90
2023-04-08T09:19:11.011Z,76.20
2023-04-08T09:21:37.420Z,77.10
2023-04-08T09:24:03.884Z,76.40
2023-04-08T09:26:30.320Z,75.90
2023-04-08T09:28:56.720Z,75.80
2023-04-08T09:31:23.177Z,76.20
2023-04-08T09:33:49.787Z,76.00
2023-04-08T09:36:16.425Z,75.70
2023-04-08T09:38:43.063Z,75.30
2023-04-08T09:41:09.434Z,74.40
2023-04-08T09:43:35.888Z,74.20
2023-04-08T09:46:02.353Z,73.60
2023-04-08T09:48:28.751Z,73.50
2023-04-08T09:50:55.162Z,73.40
2023-04-08T09:53:23.138Z,73.20
2023-04-08T09:55:49.758Z,72.40
2023-04-08T09:58:16.400Z,72.40
2023-04-08T10:00:42.878Z,72.50
2023-04-08T10:03:09.411Z,72.40
2023-04-08T10:05:36.082Z,71.60
2023-04-08T10:08:02.451Z,71.80
2023-04-08T10:10:28.855Z,72.30
2023-04-08T10:12:55.246Z,72.10
2023-04-08T10:15:21.620Z,72.40
2023-04-08T10:17:48.157Z,72.60
2023-04-08T10:20:14.560Z,72.50
2023-04-08T10:22:41.002Z,72.40
2023-04-08T10:25:07.393Z,72.30
2023-04-08T10:27:33.793Z,72.10
2023-04-08T10:30:00.190Z,71.60
2023-04-08T10:32:26.631Z,71.60
2023-04-08T10:34:53.041Z,71.40
2023-04-08T10:37:19.424Z,70.80
2023-04-08T10:39:45.867Z,70.20
2023-04-08T10:42:12.279Z,69.90
2023-04-08T10:44:38.730Z,70.10
2023-04-08T10:47:05.161Z,70.00
2023-04-08T10:49:31.607Z,69.70
2023-04-08T10:51:57.995Z,69.90
2023-04-08T10:54:24.440Z,70.10
2023-04-08T10:56:50.858Z,69.90
2023-04-08T10:59:17.250Z,70.30
2023-04-08T11:01:43.717Z,70.20
2023-04-08T11:04:10.287Z,69.40
2023-04-08T11:06:36.741Z,69.20
2023-04-08T11:09:03.135Z,69.00
2023-04-08T11:11:29.693Z,68.80
2023-04-08T11:13:56.329Z,68.70
2023-04-08T11:16:23.349Z,68.90
2023-04-08T11:18:49.963Z,68.90
2023-04-08T11:21:16.348Z,69.20
2023-04-08T11:23:42.804Z,69.20
2023-04-08T11:26:09.263Z,68.90
2023-04-08T11:28:35.695Z,68.70
2023-04-08T11:31:02.138Z,68.70
2023-04-08T11:33:28.650Z,68.70
2023-04-08T11:35:55.097Z,68.10
2023-04-08T11:38:21.549Z,67.30
2023-04-08T11:40:48.008Z,66.40
2023-04-08T11:43:14.456Z,66.00
2023-04-08T11:45:40.843Z,66.10
2023-04-08T11:48:07.241Z,65.90
2023-04-08T11:50:33.640Z,66.30
2023-04-08T11:53:00.033Z,65.80
2023-04-08T11:55:26.503Z,65.20
2023-04-08T11:57:52.926Z,65.50
2023-04-08T12:00:19.408Z,65.30
2023-04-08T12:02:45.873Z,64.70
2023-04-08T12:05:12.547Z,64.00
2023-04-08T12:07:39.105Z,63.40
2023-04-08T12:10:05.493Z,63.50
2023-04-08T12:12:31.914Z,64.10
2023-04-08T12:14:58.308Z,64.70
2023-04-08T12:17:24.772Z,64.90
2023-04-08T12:19:51.158Z,64.80
2023-04-08T12:22:17.604Z,64.20
2023-04-08T12:24:43.986Z,64.00
2023-04-08T12:27:10.410Z,63.40
2023-04-08T12:29:36.809Z,63.30
2023-04-08T12:32:03.274Z,63.30
2023-04-08T12:34:29.741Z,63.20
2023-04-08T12:36:56.263Z,63.50
2023-04-08T12:39:22.694Z,63.50
2023-04-08T12:41:49.109Z,63.60
2023-04-08T12:44:15.514Z,64.00
2023-04-08T12:46:41.985Z,64.20
2023-04-08T12:49:08.823Z,64.30
2023-04-08T12:51:35.502Z,64.10
2023-04-08T12:54:02.052Z,64.00
2023-04-08T12:56:28.466Z,64.00
2023-04-08T12:58:54.907Z,64.40
2023-04-08T13:01:21.392Z,63.80
2023-04-08T13:03:47.941Z,63.30
2023-04-08T13:06:14.504Z,62.70
2023-04-08T13:08:40.937Z,63.30
2023-04-08T13:11:07.362Z,63.00
2023-04-08T13:13:33.792Z,63.30
2023-04-08T13:16:00.364Z,62.30
2023-04-08T13:18:26.865Z,62.00
2023-04-08T13:20:53.417Z,62.40
2023-04-08T13:23:19.801Z,62.70
2023-04-08T13:25:46.181Z,62.40
2023-04-08T13:28:12.574Z,61.80
2023-04-08T13:30:38.940Z,61.50
2023-04-08T13:33:05.433Z,61.60
2023-04-08T13:35:31.955Z,62.00
2023-04-08T13:37:58.351Z,62.20
2023-04-08T13:40:24.761Z,62.20
2023-04-08T13:42:51.158Z,62.60
2023-04-08T13:45:17.523Z,62.80
2023-04-08T13:47:44.028Z,62.60
2023-04-08T13:50:10.526Z,62.40
2023-04-08T13:52:36.988Z,62.40
2023-04-08T13:55:03.385Z,61.80
2023-04-08T13:57:29.777Z,62.00
2023-04-08T13:59:56.196Z,62.30
2023-04-08T14:02:22.720Z,62.20
2023-04-08T14:04:49.199Z,62.00
2023-04-08T14:07:15.629Z,61.60
2023-04-08T14:09:42.058Z,61.80
2023-04-08T14:12:08.437Z,61.60
2023-04-08T14:14:34.818Z,61.70
2023-04-08T14:17:01.306Z,62.00
2023-04-08T14:19:27.743Z,62.10
2023-04-08T14:21:54.135Z,62.40
2023-04-08T14:24:20.505Z,62.60
2023-04-08T14:26:46.954Z,62.90
2023-04-08T14:29:13.416Z,62.90
2023-04-08T14:31:39.831Z,63.60
2023-04-08T14:34:06.300Z,63.90
2023-04-08T14:36:32.766Z,64.40
2023-04-08T14:38:59.193Z,64.40
2023-04-08T14:41:25.624Z,64.60
2023-04-08T14:43:52.014Z,64.70
2023-04-08T14:46:18.513Z,65.40
2023-04-08T14:48:44.972Z,64.60
2023-04-08T14:51:11.476Z,64.40
2023-04-08T14:53:37.902Z,64.50
2023-04-08T14:56:04.361Z,64.50
2023-04-08T14:58:30.773Z,64.60
2023-04-08T15:00:57.203Z,64.80
2023-04-08T15:03:23.762Z,65.00
2023-04-08T15:05:50.566Z,65.20
2023-04-08T15:08:16.946Z,65.30
2023-04-08T15:10:43.395Z,65.50
2023-04-08T15:13:09.806Z,65.50
2023-04-08T15:15:36.310Z,65.80
2023-04-08T15:18:02.970Z,66.70
2023-04-08T15:20:29.416Z,66.20
2023-04-08T15:22:55.873Z,66.30
2023-04-08T15:25:22.385Z,66.50
2023-04-08T15:27:48.841Z,66.70
2023-04-08T15:30:15.312Z,66.80
2023-04-08T15:32:41.823Z,67.10
2023-04-08T15:35:08.294Z,67.30
2023-04-08T15:37:34.687Z,67.60
2023-04-08T15:40:01.186Z,67.50
2023-04-08T15:42:27.675Z,67.40
2023-04-08T15:44:54.181Z,67.30
2023-04-08T15:47:20.565Z,67.50
2023-04-08T15:49:47.032Z,67.60
2023-04-08T15:52:13.608Z,67.80
2023-04-08T15:54:40.053Z,67.80
2023-04-08T15:57:06.469Z,67.90
2023-04-08T15:59:32.878Z,67.90
2023-04-08T16:01:59.432Z,68.10
2023-04-08T16:04:26.022Z,68.30
2023-04-08T16:06:52.558Z,68.50
2023-04-08T16:09:18.964Z,68.60
2023-04-08T16:11:45.359Z,68.70
2023-04-08T16:14:11.777Z,68.80
2023-04-08T16:16:38.290Z,69.00
2023-04-08T16:19:04.837Z,69.00
2023-04-08T16:21:31.291Z,69.20
2023-04-08T16:23:57.742Z,69.40
2023-04-08T16:26:24.186Z,69.60
2023-04-08T16:28:50.888Z,69.70
2023-04-08T16:31:18.794Z,69.70
2023-04-08T16:33:46.434Z,69.90
2023-04-08T16:36:12.927Z,69.90
2023-04-08T16:38:39.402Z,69.90
2023-04-08T16:41:05.834Z,69.90
2023-04-08T16:43:32.267Z,69.90
2023-04-08T16:45:58.692Z,69.80
2023-04-08T16:48:25.135Z,69.80
2023-04-08T16:50:51.583Z,69.80
2023-04-08T16:53:18.080Z,69.70
2023-04-08T16:55:44.508Z,69.70
2023-04-08T16:58:10.992Z,69.70
2023-04-08T17:00:37.519Z,69.80
2023-04-08T17:03:04.356Z,70.20
2023-04-08T17:05:30.991Z,69.90
2023-04-08T17:07:57.521Z,70.20
2023-04-08T17:10:23.942Z,70.30
2023-04-08T17:12:50.824Z,70.40
2023-04-08T17:15:17.283Z,70.50
2023-04-08T17:17:43.690Z,70.70
2023-04-08T17:20:10.152Z,70.90
2023-04-08T17:22:36.621Z,71.00
2023-04-08T17:25:03.013Z,71.10
2023-04-08T17:27:29.407Z,71.10
2023-04-08T17:29:55.811Z,71.00
2023-04-08T17:32:22.297Z,71.20
2023-04-08T17:34:48.682Z,71.30
2023-04-08T17:37:15.061Z,71.50
2023-04-08T17:39:41.459Z,71.50
2023-04-08T17:42:07.913Z,71.60
2023-04-08T17:44:34.364Z,71.60
2023-04-08T17:47:00.772Z,71.70
2023-04-08T17:49:27.163Z,71.70
2023-04-08T17:51:53.567Z,72.00
2023-04-08T17:54:19.941Z,72.00
2023-04-08T17:56:47.796Z,72.00
2023-04-08T17:59:16.002Z,72.00
2023-04-08T18:01:42.489Z,72.00
2023-04-08T18:04:09.129Z,72.10
2023-04-08T18:06:35.587Z,72.20
2023-04-08T18:09:02.032Z,73.10
2023-04-08T18:11:28.409Z,72.50
2023-04-08T18:13:54.831Z,72.60
2023-04-08T18:16:21.248Z,72.80
2023-04-08T18:18:47.644Z,73.50
2023-04-08T18:21:14.062Z,73.00
2023-04-08T18:23:40.485Z,73.10
2023-04-08T18:26:06.875Z,73.20
2023-04-08T18:28:33.280Z,73.30
2023-04-08T18:30:59.714Z,73.50
2023-04-08T18:33:26.207Z,73.60
2023-04-08T18:35:52.817Z,73.80
2023-04-08T18:38:19.604Z,73.70
2023-04-08T18:40:46.089Z,73.80
2023-04-08T18:43:12.541Z,73.80
2023-04-08T18:45:38.954Z,73.80
2023-04-08T18:48:05.325Z,73.80
2023-04-08T18:50:31.767Z,73.90
2023-04-08T18:52:58.219Z,74.00
2023-04-08T18:55:24.627Z,74.00
2023-04-08T18:57:51.046Z,74.10
2023-04-08T19:00:17.488Z,74.30
2023-04-08T19:02:44.034Z,74.90
2023-04-08T19:05:10.633Z,74.30
2023-04-08T19:07:37.105Z,74.30
2023-04-08T19:10:03.508Z,74.30
2023-04-08T19:12:29.969Z,74.40
2023-04-08T19:14:56.389Z,74.40
2023-04-08T19:17:22.851Z,74.50
2023-04-08T19:19:49.374Z,74.50
2023-04-08T19:22:15.764Z,74.60
2023-04-08T19:24:42.230Z,74.70
2023-04-08T19:27:08.646Z,74.80
2023-04-08T19:29:35.033Z,74.80
2023-04-08T19:32:01.546Z,75.00
2023-04-08T19:34:28.026Z,75.10
2023-04-08T19:36:54.452Z,75.20
2023-04-08T19:39:20.861Z,75.40
2023-04-08T19:41:47.300Z,75.50
2023-04-08T19:44:13.710Z,75.50
2023-04-08T19:46:40.229Z,75.60
2023-04-08T19:49:06.717Z,75.60
2023-04-08T19:51:33.120Z,75.70
2023-04-08T19:53:59.507Z,75.60
2023-04-08T19:56:25.947Z,75.70
2023-04-08T19:58:52.613Z,75.80
2023-04-08T20:01:19.622Z,76.00
2023-04-08T20:03:46.135Z,76.10
2023-04-08T20:06:12.598Z,76.10
2023-04-08T20:08:39.052Z,76.20
2023-04-08T20:11:05.507Z,76.40
2023-04-08T20:13:31.987Z,76.50
2023-04-08T20:15:58.467Z,76.70
2023-04-08T20:18:24.901Z,76.70
2023-04-08T20:20:51.293Z,76.90
2023-04-08T20:23:17.695Z,76.90
2023-04-08T20:25:44.090Z,77.10
2023-04-08T20:28:10.522Z,77.10
2023-04-08T20:30:36.919Z,77.20
2023-04-08T20:33:03.406Z,77.30
2023-04-08T20:35:29.850Z,77.30
2023-04-08T20:37:56.289Z,77.40
2023-04-08T20:40:22.716Z,77.60
2023-04-08T20:42:49.155Z,77.60
2023-04-08T20:45:16.939Z,77.60
2023-04-08T20:47:43.438Z,77.60
2023-04-08T20:50:09.882Z,77.60
2023-04-08T20:52:36.341Z,77.60
2023-04-08T20:55:02.795Z,77.70
2023-04-08T20:57:29.207Z,77.90
2023-04-08T20:59:55.592Z,77.90
2023-04-08T21:02:22.153Z,77.90
2023-04-08T21:04:48.733Z,77.80
2023-04-08T21:07:15.212Z,77.70
2023-04-08T21:09:41.681Z,77.70
2023-04-08T21:12:08.106Z,77.60
2023-04-08T21:14:34.713Z,77.60
2023-04-08T21:17:01.098Z,77.60
2023-04-08T21:19:27.490Z,77.40
2023-04-08T21:21:53.902Z,77.40
2023-04-08T21:24:20.686Z,77.30
2023-04-08T21:26:47.470Z,77.40
2023-04-08T21:29:13.917Z,77.40
2023-04-08T21:31:40.407Z,77.30
2023-04-08T21:34:06.840Z,77.50
2023-04-08T21:36:33.300Z,77.60
2023-04-08T21:38:59.761Z,77.70
2023-04-08T21:41:27.214Z,77.80
2023-04-08T21:43:54.840Z,77.70
2023-04-08T21:46:21.432Z,77.80
2023-04-08T21:48:47.966Z,77.90
2023-04-08T21:51:14.448Z,78.00
2023-04-08T21:53:40.845Z,78.00
2023-04-08T21:56:07.299Z,78.10
2023-04-08T21:58:33.737Z,78.20
2023-04-08T22:01:00.204Z,78.20
2023-04-08T22:03:26.650Z,78.30
2023-04-08T22:05:53.117Z,78.40
2023-04-08T22:08:19.711Z,78.40
2023-04-08T22:10:46.201Z,78.50
2023-04-08T22:13:12.648Z,78.50
2023-04-08T22:15:39.087Z,78.40
2023-04-08T22:18:05.590Z,78.40
2023-04-08T22:20:32.018Z,78.40
2023-04-08T22:22:58.397Z,78.50
2023-04-08T22:25:24.850Z,78.50
2023-04-08T22:27:51.257Z,78.50
2023-04-08T22:30:17.661Z,78.50
2023-04-08T22:32:44.077Z,78.50
2023-04-08T22:35:10.519Z,78.50
2023-04-08T22:37:36.915Z,78.60
2023-04-08T22:40:03.387Z,78.70
2023-04-08T22:42:29.794Z,78.80
2023-04-08T22:44:56.225Z,79.00
2023-04-08T22:47:22.950Z,79.00
2023-04-08T22:49:49.746Z,79.10
2023-04-08T22:52:16.145Z,79.10
2023-04-08T22:54:42.555Z,79.10
2023-04-08T22:57:09.012Z,79.00
2023-04-08T22:59:35.394Z,79.10
2023-04-08T23:02:01.962Z,79.10
2023-04-08T23:04:28.525Z,79.10
2023-04-08T23:06:54.958Z,79.00
2023-04-08T23:09:21.398Z,79.00
2023-04-08T23:11:47.853Z,79.00
2023-04-08T23:14:14.263Z,78.90
2023-04-08T23:16:40.745Z,78.90
2023-04-08T23:19:07.217Z,78.90
2023-04-08T23:21:33.646Z,78.90
2023-04-08T23:24:00.073Z,79.10
2023-04-08T23:26:26.620Z,79.20
2023-04-08T23:28:53.324Z,79.30
2023-04-08T23:31:19.985Z,79.30
2023-04-08T23:33:46.533Z,79.30
2023-04-08T23:36:13.032Z,79.40
2023-04-08T23:38:39.459Z,79.40
2023-04-08T23:41:05.905Z,79.40
2023-04-08T23:43:32.311Z,79.30
2023-04-08T23:45:58.691Z,79.30
2023-04-08T23:48:25.076Z,79.20
2023-04-08T23:50:51.521Z,79.30
2023-04-08T23:53:17.910Z,79.20
2023-04-08T23:55:44.291Z,79.20
2023-04-08T23:58:10.754Z,79.30
